Time;durP1;ratioP1;P1;durP2;ratioP2;P2;SDS_P1;SDS_P2;PMS_P1;PMS_P2;Temp;Humidity;BMP_temperature;BMP_pressure;BME280_temperature;BME280_humidity;BME280_pressure;Samples;Min_cycle;Max_cycle;Signal;HPM_P1;HPM_P2
2022/08/02 00:00:53;;;;;;;5.77;5.23;;;;;;;;;;5031731;28;20476;-52
2022/08/02 00:03:20;;;;;;;7.73;5.50;;;;;;;;;;5032366;28;20537;-52
2022/08/02 00:05:46;;;;;;;5.43;4.63;;;;;;;;;;5031703;28;20442;-52
2022/08/02 00:08:12;;;;;;;7.80;4.80;;;;;;;;;;5031511;28;20459;-52
2022/08/02 00:10:38;;;;;;;4.93;4.53;;;;;;;;;;5031602;28;20384;-52
2022/08/02 00:13:04;;;;;;;5.13;4.63;;;;;;;;;;5032247;28;20375;-52
2022/08/02 00:15:30;;;;;;;7.00;5.87;;;;;;;;;;5031201;28;20492;-52
2022/08/02 00:17:56;;;;;;;6.47;5.97;;;;;;;;;;5032153;28;20417;-52
2022/08/02 00:20:22;;;;;;;7.53;5.10;;;;;;;;;;5031273;28;20414;-52
2022/08/02 00:22:48;;;;;;;8.33;5.10;;;;;;;;;;5032240;28;20791;-52
2022/08/02 00:25:14;;;;;;;7.20;5.53;;;;;;;;;;5032159;28;20422;-52
2022/08/02 00:27:40;;;;;;;5.83;5.27;;;;;;;;;;5032097;28;20384;-52
2022/08/02 00:30:06;;;;;;;12.97;6.00;;;;;;;;;;5031278;28;20407;-52
2022/08/02 00:32:32;;;;;;;6.67;5.80;;;;;;;;;;5032088;28;20407;-52
2022/08/02 00:34:58;;;;;;;5.90;4.40;;;;;;;;;;5031609;28;20411;-52
2022/08/02 00:37:24;;;;;;;8.30;4.70;;;;;;;;;;5031992;28;20385;-52
2022/08/02 00:39:50;;;;;;;6.10;5.50;;;;;;;;;;5031159;28;20485;-52
2022/08/02 00:42:16;;;;;;;7.33;5.33;;;;;;;;;;5031911;28;20967;-52
2022/08/02 00:44:42;;;;;;;7.67;5.50;;;;;;;;;;5030784;28;20430;-52
2022/08/02 00:47:08;;;;;;;5.07;4.57;;;;;;;;;;5031804;28;20370;-52
2022/08/02 00:49:34;;;;;;;6.37;4.90;;;;;;;;;;5031480;28;20438;-52
2022/08/02 00:52:00;;;;;;;5.57;5.17;;;;;;;;;;5031272;28;20439;-52
2022/08/02 00:54:26;;;;;;;8.37;5.67;;;;;;;;;;5031537;28;20475;-52
2022/08/02 00:56:52;;;;;;;12.57;5.83;;;;;;;;;;5031716;28;20377;-52
2022/08/02 00:59:18;;;;;;;6.03;5.40;;;;;;;;;;5031649;28;20376;-52
2022/08/02 01:01:44;;;;;;;4.93;4.50;;;;;;;;;;5030190;28;20775;-52
2022/08/02 01:04:13;;;;;;;6.97;5.43;;;;;;;;;;5030949;28;20469;-52
2022/08/02 01:06:40;;;;;;;7.43;5.20;;;;;;;;;;5031364;28;20377;-52
2022/08/02 01:09:07;;;;;;;6.30;5.70;;;;;;;;;;5031623;28;20388;-52
2022/08/02 01:11:33;;;;;;;5.57;5.07;;;;;;;;;;5030832;28;20401;-52
2022/08/02 01:14:05;;;;;;;5.73;5.00;;;;;;;;;;5030648;28;20444;-52
2022/08/02 01:16:33;;;;;;;5.40;4.70;;;;;;;;;;5031420;28;20465;-52
2022/08/02 01:19:08;;;;;;;6.60;4.97;;;;;;;;;;5031404;28;20403;-52
2022/08/02 01:21:40;;;;;;;6.07;5.00;;;;;;;;;;5030722;28;20888;-52
2022/08/02 01:24:16;;;;;;;7.90;5.83;;;;;;;;;;5031423;28;20416;-52
2022/08/02 01:26:45;;;;;;;7.57;5.50;;;;;;;;;;5031562;28;20758;-52
2022/08/02 01:29:24;;;;;;;8.63;6.63;;;;;;;;;;5031309;28;20457;-52
2022/08/02 01:32:05;;;;;;;6.07;5.57;;;;;;;;;;5030751;28;20373;-52
2022/08/02 01:34:38;;;;;;;6.20;5.60;;;;;;;;;;5030275;28;20435;-52
2022/08/02 01:37:25;;;;;;;5.33;4.83;;;;;;;;;;5031426;28;20402;-52
2022/08/02 01:39:54;;;;;;;7.03;5.20;;;;;;;;;;5030651;28;20422;-52
2022/08/02 01:42:21;;;;;;;7.47;4.90;;;;;;;;;;5031300;28;20423;-52
2022/08/02 01:44:49;;;;;;;6.37;5.77;;;;;;;;;;5030131;28;20442;-52
2022/08/02 01:47:21;;;;;;;7.43;5.90;;;;;;;;;;5032759;28;20437;-52
2022/08/02 01:49:49;;;;;;;10.43;5.50;;;;;;;;;;5034203;28;20389;-52
2022/08/02 01:52:23;;;;;;;8.20;5.53;;;;;;;;;;5034898;28;20405;-52
2022/08/02 01:54:51;;;;;;;11.37;6.03;;;;;;;;;;5035432;28;20446;-52
2022/08/02 01:57:18;;;;;;;10.80;5.60;;;;;;;;;;5034954;28;20381;-52
2022/08/02 01:59:44;;;;;;;6.93;5.60;;;;;;;;;;5034154;28;20406;-52
2022/08/02 02:02:11;;;;;;;9.17;6.70;;;;;;;;;;5034561;28;20426;-53
2022/08/02 02:04:38;;;;;;;5.43;4.93;;;;;;;;;;5034127;28;20418;-52
2022/08/02 02:07:05;;;;;;;6.17;5.63;;;;;;;;;;5034624;28;20415;-52
2022/08/02 02:09:32;;;;;;;6.13;5.20;;;;;;;;;;5034484;28;20406;-52
2022/08/02 02:11:59;;;;;;;10.27;6.27;;;;;;;;;;5034081;28;20384;-52
2022/08/02 02:14:26;;;;;;;7.27;6.23;;;;;;;;;;5034383;28;20408;-52
2022/08/02 02:16:53;;;;;;;7.10;6.20;;;;;;;;;;5034414;28;20369;-52
2022/08/02 02:19:20;;;;;;;9.37;5.93;;;;;;;;;;5034351;28;20369;-52
2022/08/02 02:21:46;;;;;;;12.80;6.47;;;;;;;;;;5034014;28;20383;-52
2022/08/02 02:24:12;;;;;;;8.93;6.20;;;;;;;;;;5034439;28;20394;-52
2022/08/02 02:26:38;;;;;;;14.80;8.30;;;;;;;;;;5033043;28;20472;-52
2022/08/02 02:29:07;;;;;;;8.20;6.00;;;;;;;;;;5034119;28;20418;-53
2022/08/02 02:31:34;;;;;;;14.80;6.60;;;;;;;;;;5033822;28;20755;-52
2022/08/02 02:34:11;;;;;;;10.00;6.43;;;;;;;;;;5031906;28;20453;-52
2022/08/02 02:36:39;;;;;;;6.97;6.20;;;;;;;;;;5033586;28;20433;-53
2022/08/02 02:39:06;;;;;;;7.57;6.53;;;;;;;;;;5033953;28;20742;-52
2022/08/02 02:41:32;;;;;;;7.80;6.53;;;;;;;;;;5032211;28;20418;-52
2022/08/02 02:44:00;;;;;;;9.13;6.80;;;;;;;;;;5033754;28;20433;-52
2022/08/02 02:46:28;;;;;;;9.27;6.30;;;;;;;;;;5033798;28;20381;-52
2022/08/02 02:48:55;;;;;;;11.27;8.73;;;;;;;;;;5033754;28;20893;-52
2022/08/02 02:51:21;;;;;;;11.40;7.30;;;;;;;;;;5033314;28;20897;-52
2022/08/02 02:53:49;;;;;;;10.00;6.37;;;;;;;;;;5033628;28;20401;-52
2022/08/02 02:56:15;;;;;;;13.33;7.50;;;;;;;;;;5033623;28;20377;-52
2022/08/02 02:58:42;;;;;;;6.27;5.70;;;;;;;;;;5032489;28;20379;-52
2022/08/02 03:01:27;;;;;;;11.73;6.40;;;;;;;;;;5033045;28;20397;-52
2022/08/02 03:03:54;;;;;;;7.90;6.30;;;;;;;;;;5032698;28;20988;-52
2022/08/02 03:06:20;;;;;;;10.73;8.23;;;;;;;;;;5033490;28;20733;-52
2022/08/02 03:08:46;;;;;;;7.57;6.90;;;;;;;;;;5033430;28;20464;-51
2022/08/02 03:11:12;;;;;;;9.50;7.07;;;;;;;;;;5032776;28;20887;-52
2022/08/02 03:13:39;;;;;;;13.40;6.90;;;;;;;;;;5033287;28;20433;-52
2022/08/02 03:16:06;;;;;;;8.53;5.80;;;;;;;;;;5033266;28;20413;-52
2022/08/02 03:18:32;;;;;;;7.43;6.67;;;;;;;;;;5033276;28;20434;-53
2022/08/02 03:20:59;;;;;;;12.53;6.10;;;;;;;;;;5032750;28;20402;-52
2022/08/02 03:23:25;;;;;;;7.97;5.60;;;;;;;;;;5033050;28;21035;-52
2022/08/02 03:25:51;;;;;;;10.13;7.17;;;;;;;;;;5033065;28;20484;-52
2022/08/02 03:28:17;;;;;;;8.77;7.83;;;;;;;;;;5033036;28;20408;-52
2022/08/02 03:30:43;;;;;;;6.83;6.00;;;;;;;;;;5032430;28;20381;-52
2022/08/02 03:33:09;;;;;;;8.30;6.03;;;;;;;;;;5032318;28;20894;-51
2022/08/02 03:35:35;;;;;;;8.83;6.83;;;;;;;;;;5031663;28;20924;-52
2022/08/02 03:38:02;;;;;;;13.47;6.77;;;;;;;;;;5032843;28;20860;-52
2022/08/02 03:40:28;;;;;;;7.17;6.47;;;;;;;;;;5032123;28;20421;-52
2022/08/02 03:42:54;;;;;;;6.90;6.30;;;;;;;;;;5032949;28;20456;-53
2022/08/02 03:45:20;;;;;;;10.63;6.80;;;;;;;;;;5032603;28;20422;-52
2022/08/02 03:47:46;;;;;;;6.97;5.93;;;;;;;;;;5032764;28;20786;-52
2022/08/02 03:50:12;;;;;;;8.00;7.20;;;;;;;;;;5032664;28;20403;-52
2022/08/02 03:52:41;;;;;;;9.60;6.90;;;;;;;;;;5032577;28;20767;-52
2022/08/02 03:55:07;;;;;;;8.90;6.93;;;;;;;;;;5032293;28;20800;-52
2022/08/02 03:57:36;;;;;;;13.67;7.30;;;;;;;;;;5032545;28;20394;-52
2022/08/02 04:00:02;;;;;;;9.97;7.03;;;;;;;;;;5031722;28;20412;-51
2022/08/02 04:02:28;;;;;;;9.63;7.57;;;;;;;;;;5031594;28;20439;-51
2022/08/02 04:04:54;;;;;;;9.10;8.10;;;;;;;;;;5032336;28;20410;-52
2022/08/02 04:07:20;;;;;;;11.43;8.17;;;;;;;;;;5031638;28;20456;-52
2022/08/02 04:09:46;;;;;;;7.67;7.03;;;;;;;;;;5031239;28;20408;-52
2022/08/02 04:12:12;;;;;;;8.63;7.07;;;;;;;;;;5032301;28;20434;-52
2022/08/02 04:14:38;;;;;;;8.50;7.43;;;;;;;;;;5032141;28;20428;-52
2022/08/02 04:17:05;;;;;;;11.13;8.43;;;;;;;;;;5032227;28;20379;-51
2022/08/02 04:19:46;;;;;;;8.77;7.57;;;;;;;;;;5032103;28;20409;-52
2022/08/02 04:22:18;;;;;;;10.60;9.47;;;;;;;;;;5031899;28;20539;-51
2022/08/02 04:24:49;;;;;;;12.40;8.57;;;;;;;;;;5032045;28;20857;-51
2022/08/02 04:27:17;;;;;;;9.60;7.90;;;;;;;;;;5032149;28;20380;-51
2022/08/02 04:29:43;;;;;;;10.97;8.60;;;;;;;;;;5031331;28;20421;-53
2022/08/02 04:32:09;;;;;;;9.00;8.10;;;;;;;;;;5032012;28;20882;-52
2022/08/02 04:34:35;;;;;;;9.50;7.80;;;;;;;;;;5030064;28;20552;-52
2022/08/02 04:37:01;;;;;;;9.60;8.60;;;;;;;;;;5032014;28;20494;-51
2022/08/02 04:39:27;;;;;;;10.13;8.53;;;;;;;;;;5032057;28;20403;-52
2022/08/02 04:41:53;;;;;;;29.77;8.23;;;;;;;;;;5031193;28;20403;-52
2022/08/02 04:44:19;;;;;;;11.83;8.00;;;;;;;;;;5031711;28;20775;-51
2022/08/02 04:46:46;;;;;;;13.07;8.93;;;;;;;;;;5031879;28;20398;-52
2022/08/02 04:49:12;;;;;;;10.20;9.03;;;;;;;;;;5031613;28;20487;-51
2022/08/02 04:51:39;;;;;;;9.07;8.27;;;;;;;;;;5031151;28;20395;-52
2022/08/02 04:54:05;;;;;;;13.63;9.00;;;;;;;;;;5031533;28;20438;-52
2022/08/02 04:56:31;;;;;;;11.90;8.53;;;;;;;;;;5031947;28;20395;-52
2022/08/02 04:58:57;;;;;;;12.27;8.90;;;;;;;;;;5031997;28;20468;-51
2022/08/02 05:01:23;;;;;;;10.93;9.83;;;;;;;;;;5031029;28;20434;-51
2022/08/02 05:03:49;;;;;;;12.07;8.50;;;;;;;;;;5029740;28;20447;-53
2022/08/02 05:06:15;;;;;;;13.20;8.47;;;;;;;;;;5031850;28;20941;-51
2022/08/02 05:08:42;;;;;;;12.03;8.30;;;;;;;;;;5031595;28;20377;-51
2022/08/02 05:11:07;;;;;;;11.70;8.50;;;;;;;;;;5031076;28;20406;-52
2022/08/02 05:13:33;;;;;;;11.47;8.53;;;;;;;;;;5031542;28;20757;-52
2022/08/02 05:16:01;;;;;;;10.53;8.70;;;;;;;;;;5031630;28;20383;-52
2022/08/02 05:18:28;;;;;;;17.90;8.80;;;;;;;;;;5030587;28;20407;-52
2022/08/02 05:20:54;;;;;;;12.00;8.90;;;;;;;;;;5030118;28;20751;-52
2022/08/02 05:23:20;;;;;;;14.30;9.47;;;;;;;;;;5034592;28;20435;-52
2022/08/02 05:25:46;;;;;;;13.23;10.37;;;;;;;;;;5034533;28;20364;-52
2022/08/02 05:28:12;;;;;;;9.10;8.27;;;;;;;;;;5034583;28;20402;-52
2022/08/02 05:30:38;;;;;;;10.87;8.73;;;;;;;;;;5033688;28;20380;-52
2022/08/02 05:33:04;;;;;;;9.80;8.80;;;;;;;;;;5033401;28;20523;-52
2022/08/02 05:35:30;;;;;;;10.53;8.30;;;;;;;;;;5033596;28;20399;-52
2022/08/02 05:37:56;;;;;;;15.20;9.30;;;;;;;;;;5034508;28;20780;-52
2022/08/02 05:40:22;;;;;;;12.30;8.57;;;;;;;;;;5033718;28;20881;-52
2022/08/02 05:42:48;;;;;;;11.43;9.70;;;;;;;;;;5034138;28;20475;-52
2022/08/02 05:45:14;;;;;;;14.90;10.00;;;;;;;;;;5034242;28;20963;-52
2022/08/02 05:47:40;;;;;;;10.73;8.77;;;;;;;;;;5034237;28;20781;-51
2022/08/02 05:50:07;;;;;;;9.70;8.70;;;;;;;;;;5033621;28;20377;-51
2022/08/02 05:52:53;;;;;;;11.80;8.77;;;;;;;;;;5037740;28;20395;-53
2022/08/02 05:55:26;;;;;;;12.97;8.70;;;;;;;;;;5034412;28;20434;-53
2022/08/02 05:58:00;;;;;;;9.23;8.37;;;;;;;;;;5034653;28;20442;-52
2022/08/02 06:00:28;;;;;;;11.33;9.10;;;;;;;;;;5034218;28;20411;-52
2022/08/02 06:02:59;;;;;;;12.57;8.53;;;;;;;;;;5033905;28;20504;-52
2022/08/02 06:05:26;;;;;;;12.03;9.77;;;;;;;;;;5034501;28;20525;-52
2022/08/02 06:07:54;;;;;;;14.27;9.43;;;;;;;;;;5034374;28;20884;-52
2022/08/02 06:10:21;;;;;;;10.20;8.73;;;;;;;;;;5033377;28;20369;-53
2022/08/02 06:12:50;;;;;;;17.10;9.10;;;;;;;;;;5033287;28;20412;-52
2022/08/02 06:15:17;;;;;;;10.13;8.60;;;;;;;;;;5033762;28;20432;-52
2022/08/02 06:17:44;;;;;;;10.27;9.10;;;;;;;;;;5032645;28;20384;-52
2022/08/02 06:20:14;;;;;;;9.87;8.93;;;;;;;;;;5032973;28;20970;-52
2022/08/02 06:22:42;;;;;;;9.80;8.27;;;;;;;;;;5033822;28;20432;-52
2022/08/02 06:25:09;;;;;;;14.53;9.00;;;;;;;;;;5034051;28;20424;-52
2022/08/02 06:27:35;;;;;;;8.73;8.03;;;;;;;;;;5034295;28;20449;-52
2022/08/02 06:30:02;;;;;;;9.30;8.10;;;;;;;;;;5033545;28;20493;-52
2022/08/02 06:32:28;;;;;;;9.00;8.20;;;;;;;;;;5033399;28;20436;-52
2022/08/02 06:34:54;;;;;;;9.27;8.37;;;;;;;;;;5033939;28;20422;-52
2022/08/02 06:37:30;;;;;;;8.17;7.27;;;;;;;;;;5034001;28;20910;-52
2022/08/02 06:40:15;;;;;;;8.40;7.60;;;;;;;;;;5033311;28;20499;-52
2022/08/02 06:42:44;;;;;;;15.30;8.03;;;;;;;;;;5033871;28;20454;-52
2022/08/02 06:45:10;;;;;;;8.40;7.37;;;;;;;;;;5033878;28;20424;-52
2022/08/02 06:47:36;;;;;;;8.37;7.57;;;;;;;;;;5033869;28;20544;-52
2022/08/02 06:50:03;;;;;;;8.50;7.37;;;;;;;;;;5033058;28;20689;-52
2022/08/02 06:52:32;;;;;;;7.63;6.93;;;;;;;;;;5033779;28;20487;-52
2022/08/02 06:54:59;;;;;;;9.20;7.20;;;;;;;;;;5033493;28;20447;-52
2022/08/02 06:57:25;;;;;;;7.80;6.60;;;;;;;;;;5033646;28;20410;-52
2022/08/02 06:59:51;;;;;;;8.80;6.20;;;;;;;;;;5032968;28;20809;-52
2022/08/02 07:02:17;;;;;;;8.57;7.77;;;;;;;;;;5031995;28;20812;-52
2022/08/02 07:04:43;;;;;;;6.90;6.20;;;;;;;;;;5032241;28;20442;-52
2022/08/02 07:07:09;;;;;;;7.60;6.80;;;;;;;;;;5033569;28;20398;-51
2022/08/02 07:09:35;;;;;;;9.50;6.53;;;;;;;;;;5033205;28;20405;-51
2022/08/02 07:12:01;;;;;;;9.73;6.07;;;;;;;;;;5032845;28;20402;-52
2022/08/02 07:14:27;;;;;;;7.10;6.40;;;;;;;;;;5033329;28;20419;-51
2022/08/02 07:16:53;;;;;;;5.80;5.30;;;;;;;;;;5033390;28;20452;-52
2022/08/02 07:19:19;;;;;;;8.87;6.20;;;;;;;;;;5033208;28;20404;-52
2022/08/02 07:21:45;;;;;;;6.27;5.63;;;;;;;;;;5032619;28;20402;-52
2022/08/02 07:24:11;;;;;;;6.23;5.73;;;;;;;;;;5033026;28;20464;-52
2022/08/02 07:26:37;;;;;;;5.47;4.37;;;;;;;;;;5033226;28;20397;-52
2022/08/02 07:29:03;;;;;;;5.50;5.00;;;;;;;;;;5033066;28;20942;-51
2022/08/02 07:31:29;;;;;;;7.00;4.50;;;;;;;;;;5032434;28;20398;-52
2022/08/02 07:33:55;;;;;;;5.80;5.40;;;;;;;;;;5032290;28;20464;-51
2022/08/02 07:36:21;;;;;;;6.50;4.87;;;;;;;;;;5032309;28;20440;-52
2022/08/02 07:38:48;;;;;;;4.40;4.00;;;;;;;;;;5032803;28;20957;-52
2022/08/02 07:41:14;;;;;;;4.27;3.70;;;;;;;;;;5032262;28;20410;-52
2022/08/02 07:43:40;;;;;;;6.37;4.43;;;;;;;;;;5032437;28;20519;-51
2022/08/02 07:46:06;;;;;;;5.27;4.50;;;;;;;;;;5032538;28;20394;-51
2022/08/02 07:48:32;;;;;;;4.50;3.90;;;;;;;;;;5032747;28;20930;-51
2022/08/02 07:50:58;;;;;;;4.23;3.83;;;;;;;;;;5032032;28;20405;-52
2022/08/02 07:55:54;;;;;;;3.87;3.40;;;;;;;;;;5031089;28;20564;-51
2022/08/02 07:58:20;;;;;;;3.70;3.33;;;;;;;;;;5032874;28;20438;-51
2022/08/02 08:00:46;;;;;;;5.57;4.23;;;;;;;;;;5032932;28;20405;-52
2022/08/02 08:03:12;;;;;;;6.10;3.57;;;;;;;;;;5039259;28;20460;-52
2022/08/02 08:05:39;;;;;;;3.17;2.87;;;;;;;;;;5052729;28;20517;-53
2022/08/02 08:08:05;;;;;;;2.60;2.40;;;;;;;;;;5052615;28;20405;-50
2022/08/02 08:10:31;;;;;;;4.40;2.87;;;;;;;;;;5052593;28;20417;-52
2022/08/02 08:12:57;;;;;;;2.30;2.10;;;;;;;;;;5052658;28;20416;-52
2022/08/02 08:15:23;;;;;;;3.63;2.57;;;;;;;;;;5052460;28;20457;-50
2022/08/02 08:17:50;;;;;;;2.60;2.30;;;;;;;;;;5052661;28;20417;-51
2022/08/02 08:20:16;;;;;;;2.57;2.13;;;;;;;;;;5052395;28;20409;-52
2022/08/02 08:22:42;;;;;;;2.70;2.30;;;;;;;;;;5052491;28;20575;-52
2022/08/02 08:25:08;;;;;;;2.30;2.10;;;;;;;;;;5052741;28;20496;-51
2022/08/02 08:27:34;;;;;;;2.30;2.00;;;;;;;;;;5052656;28;20405;-51
2022/08/02 08:30:00;;;;;;;2.17;1.97;;;;;;;;;;5052640;28;20424;-52
2022/08/02 08:32:26;;;;;;;1.90;1.80;;;;;;;;;;5051273;28;20842;-52
2022/08/02 08:34:52;;;;;;;2.70;1.83;;;;;;;;;;5052872;28;20508;-51
2022/08/02 08:37:18;;;;;;;2.20;2.00;;;;;;;;;;5053407;28;20412;-51
2022/08/02 08:39:45;;;;;;;2.03;1.90;;;;;;;;;;5052563;28;20405;-51
2022/08/02 08:42:11;;;;;;;2.30;2.10;;;;;;;;;;5052570;28;20409;-51
2022/08/02 08:44:37;;;;;;;2.33;2.13;;;;;;;;;;5052971;28;20483;-51
2022/08/02 08:47:04;;;;;;;3.00;1.80;;;;;;;;;;5052892;28;20401;-51
2022/08/02 08:49:36;;;;;;;2.00;1.80;;;;;;;;;;5052779;28;20484;-51
2022/08/02 08:52:04;;;;;;;2.20;2.10;;;;;;;;;;5052267;28;20881;-50
2022/08/02 08:54:31;;;;;;;2.53;1.97;;;;;;;;;;5052434;28;20437;-51
2022/08/02 08:56:57;;;;;;;3.00;2.07;;;;;;;;;;5054510;28;20492;-51
2022/08/02 08:59:23;;;;;;;1.93;1.80;;;;;;;;;;5056588;28;20409;-50
2022/08/02 09:01:50;;;;;;;1.60;1.50;;;;;;;;;;5055376;28;21034;-51
2022/08/02 09:04:16;;;;;;;2.90;1.83;;;;;;;;;;5053738;28;20806;-50
2022/08/02 09:06:42;;;;;;;2.10;2.00;;;;;;;;;;5056643;28;20495;-50
2022/08/02 09:09:08;;;;;;;1.43;1.20;;;;;;;;;;5056458;28;20543;-51
2022/08/02 09:11:34;;;;;;;1.77;1.67;;;;;;;;;;5055618;28;20410;-51
2022/08/02 09:14:01;;;;;;;3.03;1.70;;;;;;;;;;5052487;28;20531;-51
2022/08/02 09:16:28;;;;;;;2.00;1.80;;;;;;;;;;5054474;28;20455;-50
2022/08/02 09:18:54;;;;;;;1.93;1.83;;;;;;;;;;5055543;28;20411;-50
2022/08/02 09:21:20;;;;;;;2.20;1.50;;;;;;;;;;5055256;28;20491;-51
2022/08/02 09:23:47;;;;;;;1.40;1.30;;;;;;;;;;5055270;28;20821;-50
2022/08/02 09:26:14;;;;;;;1.90;1.80;;;;;;;;;;5055514;28;20412;-51
2022/08/02 09:28:41;;;;;;;1.60;1.50;;;;;;;;;;5055409;28;20772;-51
2022/08/02 09:31:14;;;;;;;1.97;1.87;;;;;;;;;;5055331;28;20477;-51
2022/08/02 09:33:41;;;;;;;3.07;2.27;;;;;;;;;;5051554;28;20449;-51
2022/08/02 09:36:14;;;;;;;2.70;2.10;;;;;;;;;;5055428;28;20819;-53
2022/08/02 09:38:51;;;;;;;1.90;1.80;;;;;;;;;;5055257;28;20428;-50
2022/08/02 09:41:39;;;;;;;2.00;1.90;;;;;;;;;;5055120;28;20443;-50
2022/08/02 09:44:06;;;;;;;2.93;2.30;;;;;;;;;;5055053;28;20480;-50
2022/08/02 09:46:37;;;;;;;3.07;2.03;;;;;;;;;;5055063;28;20777;-50
2022/08/02 09:49:08;;;;;;;2.23;2.03;;;;;;;;;;5055244;28;20397;-50
2022/08/02 09:51:35;;;;;;;3.00;2.10;;;;;;;;;;5054856;28;20463;-51
2022/08/02 09:54:02;;;;;;;2.50;2.30;;;;;;;;;;5054801;28;20436;-50
2022/08/02 09:56:38;;;;;;;3.00;2.40;;;;;;;;;;5055105;28;20404;-52
2022/08/02 09:59:07;;;;;;;2.37;2.00;;;;;;;;;;5054797;28;20484;-50
2022/08/02 10:01:33;;;;;;;2.83;2.60;;;;;;;;;;5054650;28;20538;-53
2022/08/02 10:04:01;;;;;;;2.83;2.10;;;;;;;;;;5049776;28;20471;-51
2022/08/02 10:06:27;;;;;;;2.17;1.80;;;;;;;;;;5053696;28;20908;-51
2022/08/02 10:08:54;;;;;;;2.23;2.03;;;;;;;;;;5054020;28;20398;-53
2022/08/02 10:11:21;;;;;;;2.53;2.33;;;;;;;;;;5054335;28;20409;-52
2022/08/02 10:13:47;;;;;;;2.77;2.50;;;;;;;;;;5054469;28;20428;-51
2022/08/02 10:16:15;;;;;;;2.60;2.40;;;;;;;;;;5051037;28;20443;-51
2022/08/02 10:18:41;;;;;;;2.10;2.00;;;;;;;;;;5053426;28;20923;-51
2022/08/02 10:21:12;;;;;;;3.27;2.40;;;;;;;;;;5054191;28;20414;-50
2022/08/02 10:23:39;;;;;;;3.00;2.13;;;;;;;;;;5054257;28;20979;-50
2022/08/02 10:26:05;;;;;;;2.83;2.63;;;;;;;;;;5041364;28;20446;-51
2022/08/02 10:28:32;;;;;;;2.30;2.10;;;;;;;;;;5034231;28;20928;-52
2022/08/02 10:30:59;;;;;;;2.57;2.37;;;;;;;;;;5033983;28;20421;-50
2022/08/02 10:33:26;;;;;;;2.30;2.20;;;;;;;;;;5033408;28;20406;-53
2022/08/02 10:35:56;;;;;;;4.43;2.70;;;;;;;;;;5052132;28;20948;-51
2022/08/02 10:38:22;;;;;;;2.60;2.40;;;;;;;;;;5054064;28;20951;-50
2022/08/02 10:40:48;;;;;;;2.30;2.20;;;;;;;;;;5053906;28;20413;-53
2022/08/02 10:43:33;;;;;;;3.37;2.60;;;;;;;;;;5053901;28;20787;-52
2022/08/02 10:46:19;;;;;;;2.50;2.30;;;;;;;;;;5053819;28;20814;-50
2022/08/02 10:49:00;;;;;;;2.70;2.50;;;;;;;;;;5040197;28;20763;-51
2022/08/02 10:51:46;;;;;;;2.40;2.30;;;;;;;;;;5053618;28;20755;-50
2022/08/02 10:54:18;;;;;;;3.13;2.07;;;;;;;;;;5053444;28;20812;-50
2022/08/02 10:56:47;;;;;;;2.40;2.30;;;;;;;;;;5053694;28;20488;-50
2022/08/02 10:59:27;;;;;;;2.23;2.13;;;;;;;;;;5053630;28;20934;-50
2022/08/02 11:02:00;;;;;;;3.27;2.50;;;;;;;;;;5053367;28;20488;-50
2022/08/02 11:04:50;;;;;;;2.03;1.93;;;;;;;;;;5050472;28;20498;-51
2022/08/02 11:07:17;;;;;;;2.80;2.60;;;;;;;;;;5042958;28;20417;-50
2022/08/02 11:09:44;;;;;;;2.40;2.30;;;;;;;;;;5053174;28;20877;-51
2022/08/02 11:12:12;;;;;;;3.93;3.63;;;;;;;;;;5053379;28;20401;-51
2022/08/02 11:14:39;;;;;;;2.23;2.10;;;;;;;;;;5045167;28;20917;-50
2022/08/02 11:17:09;;;;;;;5.50;3.20;;;;;;;;;;5038308;28;20472;-50
2022/08/02 11:19:55;;;;;;;4.10;2.33;;;;;;;;;;5032048;28;20918;-54
2022/08/02 11:22:21;;;;;;;2.37;2.27;;;;;;;;;;5032711;28;20398;-50
2022/08/02 11:24:47;;;;;;;6.47;2.80;;;;;;;;;;5032907;28;20917;-50
2022/08/02 11:27:17;;;;;;;2.60;2.50;;;;;;;;;;5033150;28;20432;-50
2022/08/02 11:29:44;;;;;;;2.80;2.60;;;;;;;;;;5034821;28;20460;-53
2022/08/02 11:32:17;;;;;;;3.00;2.60;;;;;;;;;;5035561;28;20883;-51
2022/08/02 11:34:45;;;;;;;4.47;2.77;;;;;;;;;;5031998;28;20990;-51
2022/08/02 11:37:11;;;;;;;3.23;2.90;;;;;;;;;;5051769;28;20466;-52
2022/08/02 11:39:37;;;;;;;2.63;2.53;;;;;;;;;;5052611;28;20401;-51
2022/08/02 11:42:03;;;;;;;3.20;3.00;;;;;;;;;;5052234;28;20393;-51
2022/08/02 11:44:39;;;;;;;2.47;2.27;;;;;;;;;;5052513;28;20932;-51
2022/08/02 11:47:05;;;;;;;3.23;3.03;;;;;;;;;;5052663;28;20408;-49
2022/08/02 11:49:32;;;;;;;3.93;2.50;;;;;;;;;;5052407;28;20405;-50
2022/08/02 11:52:04;;;;;;;2.47;2.37;;;;;;;;;;5051574;28;20416;-50
2022/08/02 11:54:40;;;;;;;2.57;2.37;;;;;;;;;;5052103;28;20433;-50
2022/08/02 11:57:21;;;;;;;2.60;2.40;;;;;;;;;;5051890;28;20401;-50
2022/08/02 11:59:52;;;;;;;3.63;2.90;;;;;;;;;;5051712;28;20394;-49
2022/08/02 12:02:25;;;;;;;2.57;2.43;;;;;;;;;;5052229;28;20409;-49
2022/08/02 12:04:53;;;;;;;3.93;3.60;;;;;;;;;;5050853;28;20491;-50
2022/08/02 12:07:25;;;;;;;4.60;2.77;;;;;;;;;;5051291;28;20433;-50
2022/08/02 12:09:51;;;;;;;4.23;2.90;;;;;;;;;;5051614;28;20406;-49
2022/08/02 12:12:16;;;;;;;3.30;2.70;;;;;;;;;;5052199;28;20893;-49
2022/08/02 12:14:43;;;;;;;3.30;3.10;;;;;;;;;;5052121;28;20843;-49
2022/08/02 12:19:53;;;;;;;2.57;2.37;;;;;;;;;;5051528;28;20408;-50
2022/08/02 12:22:24;;;;;;;2.73;2.53;;;;;;;;;;5052106;28;20397;-49
2022/08/02 12:24:51;;;;;;;3.17;2.97;;;;;;;;;;5051980;28;20828;-50
2022/08/02 12:27:32;;;;;;;3.57;2.60;;;;;;;;;;5052204;28;20429;-49
2022/08/02 12:30:00;;;;;;;2.57;2.47;;;;;;;;;;5050999;28;20923;-49
2022/08/02 12:32:26;;;;;;;2.50;2.30;;;;;;;;;;5052031;28;20433;-49
2022/08/02 12:35:11;;;;;;;2.10;2.00;;;;;;;;;;5048687;28;20536;-49
2022/08/02 12:37:38;;;;;;;2.17;1.97;;;;;;;;;;5050925;28;21048;-51
2022/08/02 12:40:19;;;;;;;3.70;2.10;;;;;;;;;;5051072;28;20420;-50
2022/08/02 12:42:49;;;;;;;3.50;2.00;;;;;;;;;;5051685;28;20478;-50
2022/08/02 12:45:15;;;;;;;2.20;2.00;;;;;;;;;;5051631;28;20917;-50
2022/08/02 12:47:51;;;;;;;2.37;2.17;;;;;;;;;;5051658;28;20489;-50
2022/08/02 12:50:23;;;;;;;2.47;2.27;;;;;;;;;;5050922;28;20402;-50
2022/08/02 12:52:49;;;;;;;2.40;2.20;;;;;;;;;;5051787;28;20502;-49
2022/08/02 12:55:20;;;;;;;3.00;2.00;;;;;;;;;;5051505;28;20441;-50
2022/08/02 12:57:53;;;;;;;1.90;1.73;;;;;;;;;;5051759;28;20416;-50
2022/08/02 13:00:35;;;;;;;3.93;2.30;;;;;;;;;;5050676;28;20414;-50
2022/08/02 13:03:01;;;;;;;2.30;1.70;;;;;;;;;;5051460;28;20449;-51
2022/08/02 13:05:28;;;;;;;1.63;1.53;;;;;;;;;;5047697;28;20452;-50
2022/08/02 13:07:55;;;;;;;2.27;2.00;;;;;;;;;;5042422;28;20402;-50
2022/08/02 13:10:21;;;;;;;2.00;1.90;;;;;;;;;;5030581;28;20405;-50
2022/08/02 13:12:47;;;;;;;1.90;1.80;;;;;;;;;;5031384;28;20399;-50
2022/08/02 13:15:13;;;;;;;2.20;2.10;;;;;;;;;;5049282;28;20532;-50
2022/08/02 13:17:39;;;;;;;2.23;1.80;;;;;;;;;;5051265;28;20543;-50
2022/08/02 13:20:06;;;;;;;1.93;1.63;;;;;;;;;;5050479;28;20404;-50
2022/08/02 13:22:32;;;;;;;1.93;1.83;;;;;;;;;;5051216;28;20484;-50
2022/08/02 13:24:58;;;;;;;2.23;2.03;;;;;;;;;;5051195;28;20457;-50
2022/08/02 13:27:25;;;;;;;1.87;1.73;;;;;;;;;;5051194;28;20753;-50
2022/08/02 13:29:52;;;;;;;1.90;1.80;;;;;;;;;;5050416;28;20405;-50
2022/08/02 13:32:18;;;;;;;5.70;1.97;;;;;;;;;;5051169;28;20463;-50
2022/08/02 13:34:44;;;;;;;1.80;1.70;;;;;;;;;;5051078;28;20449;-51
2022/08/02 13:37:10;;;;;;;1.73;1.63;;;;;;;;;;5045095;28;20516;-53
2022/08/02 13:39:36;;;;;;;4.47;1.77;;;;;;;;;;5050823;28;20484;-50
2022/08/02 13:42:02;;;;;;;2.20;1.93;;;;;;;;;;5050758;28;20746;-50
2022/08/02 13:44:28;;;;;;;1.60;1.50;;;;;;;;;;5054694;28;20483;-49
2022/08/02 13:46:54;;;;;;;1.90;1.73;;;;;;;;;;5054796;28;20397;-50
2022/08/02 13:49:21;;;;;;;2.20;2.03;;;;;;;;;;5054673;28;20877;-50
2022/08/02 13:51:47;;;;;;;2.13;2.03;;;;;;;;;;5054142;28;20900;-50
2022/08/02 13:54:13;;;;;;;2.13;1.93;;;;;;;;;;5054352;28;21022;-50
2022/08/02 13:56:39;;;;;;;2.10;1.90;;;;;;;;;;5034539;22;20844;-49
2022/08/02 13:59:05;;;;;;;3.07;2.40;;;;;;;;;;5015739;28;20399;-50
2022/08/02 14:01:32;;;;;;;1.73;1.60;;;;;;;;;;5014810;28;20881;-49
2022/08/02 14:03:58;;;;;;;3.83;1.97;;;;;;;;;;5015509;28;20481;-49
2022/08/02 14:06:25;;;;;;;2.90;1.80;;;;;;;;;;5019979;28;20445;-50
2022/08/02 14:08:51;;;;;;;1.83;1.73;;;;;;;;;;5034376;28;20485;-49
2022/08/02 14:11:17;;;;;;;4.40;1.90;;;;;;;;;;5034125;28;20413;-49
2022/08/02 14:13:43;;;;;;;2.03;1.87;;;;;;;;;;5034973;28;20406;-49
2022/08/02 14:16:09;;;;;;;2.67;2.07;;;;;;;;;;5034431;28;20422;-51
2022/08/02 14:18:36;;;;;;;5.77;4.20;;;;;;;;;;5034880;28;20920;-50
2022/08/02 14:21:02;;;;;;;1.70;1.60;;;;;;;;;;5034000;28;20453;-49
2022/08/02 14:23:29;;;;;;;6.30;4.30;;;;;;;;;;5034226;28;20450;-49
2022/08/02 14:25:55;;;;;;;7.40;1.90;;;;;;;;;;5034660;28;20530;-50
2022/08/02 14:28:21;;;;;;;1.80;1.70;;;;;;;;;;5034301;28;20413;-49
2022/08/02 14:30:47;;;;;;;1.90;1.80;;;;;;;;;;5034174;28;20771;-49
2022/08/02 14:33:13;;;;;;;2.70;1.93;;;;;;;;;;5034716;28;20445;-49
2022/08/02 14:35:39;;;;;;;1.87;1.70;;;;;;;;;;5034608;28;20195;-49
2022/08/02 14:38:06;;;;;;;2.60;1.80;;;;;;;;;;5033307;28;20429;-51
2022/08/02 14:40:32;;;;;;;2.03;1.80;;;;;;;;;;5033971;28;20167;-49
2022/08/02 14:42:59;;;;;;;2.17;2.07;;;;;;;;;;5034480;28;20442;-50
2022/08/02 14:45:27;;;;;;;1.67;1.57;;;;;;;;;;5034429;28;20456;-49
2022/08/02 14:47:53;;;;;;;1.90;1.80;;;;;;;;;;5034834;28;20398;-50
2022/08/02 14:50:19;;;;;;;2.73;2.47;;;;;;;;;;5033731;28;20409;-50